• Join FlightAware (Why Join?)
  • Login
  • US Flag 
04:21AM EDT


 

Airport Tracker/Info


-or-


 

Live Flight TrackerFlight Track Log ✈ AWI3698 ✈ 03-May-2013 ✈ KPHL - KBUF

Flight Track Log - Related Links

Times and Time Zones

All times are in EDT time to prevent confusion due to time zone crossing. See the AWI3698 flight status page for this flight to view local times or setup timezone preferences in your user account.

Time Position Orientation Groundspeed Altitude Reporting Facility
EDT Latitude Longitude Course Direction KTS MPH feet Rate Location/Type
10:02AM 39.8833 -75.2167 311° West 144 166 1,000  Level Philadelphia TRACON
10:02AM 39.8833 -75.2000 90° East 148 170 1,600 1,740 Climbing Philadelphia TRACON
10:03AM 39.9000 -75.1333 72° East 234 269 3,300 2,280 Climbing Philadelphia TRACON
10:04AM 40.0769 -75.4268 323° Northwest  Level FlightAware Approximate
10:04AM 39.9333 -75.0667 57° Northeast 242 278 6,300  Level Philadelphia TRACON
10:05AM 40.1484 -75.4984 323° Northwest  Level FlightAware Approximate
10:05AM 40.0000 -75.1333 323° Northwest 288 331 8,900  Level Philadelphia TRACON
10:06AM 40.2222 -75.5583 311° West  Level FlightAware Approximate
10:06AM 40.0500 -75.2167 308° West 341 392 10,100  Level Philadelphia TRACON
10:07AM 40.2815 -75.6472 311° West  Level FlightAware Approximate
10:07AM 40.1000 -75.3333 299° West 363 418 10,000  Level Philadelphia TRACON
10:08AM 40.1489 -75.4228 306° West 392 451 11,400 1,740 Climbing New York Center
10:09AM 40.2150 -75.5411 306° West 380 437 13,600 2,100 Climbing New York Center
10:10AM 40.2697 -75.6294 309° West 358 412 15,700 1,680 Climbing New York Center
10:11AM 40.3344 -75.7267 311° West 358 412 17,000 600 Climbing New York Center
10:12AM 40.4108 -75.8439 311° West 364 419 17,000 360 Level New York Center
10:13AM 40.4533 -75.9722 294° West 377 434 17,800 720 Climbing New York Center
10:14AM 40.4742 -76.1078 281° West 372 428 18,500 720 Climbing New York Center
10:15AM 40.4950 -76.2483 281° West 384 442 19,300 900 Climbing New York Center
10:16AM 40.5175 -76.3869 282° West 390 449 20,300 1,080 Climbing New York Center
10:17AM 40.5403 -76.5253 282° West 395 455 21,600 1,260 Climbing New York Center
10:18AM 40.5753 -76.6567 289° West 390 449 22,900 1,440 Climbing New York Center
10:19AM 40.6300 -76.7708 302° West 379 436 24,500 1,260 Climbing New York Center
10:20AM 40.6825 -76.8847 301° West 374 430 25,400 720 Climbing New York Center
10:21AM 40.7347 -77.0019 300° West 374 430 26,000 240 Climbing New York Center
10:22AM 40.7889 -77.1219 301° West 374 430 26,000  Level New York Center
10:23AM 40.8431 -77.2394 301° West 374 430 26,000  Level New York Center
10:24AM 40.8836 -77.3367 299° West 379 436 26,000  Level New York Center
10:26AM 41.0442 -77.4664 329° Northwest 342 394 26,000  Level Cleveland Center
10:27AM 41.1394 -77.5253 335° Northwest 361 415 26,000  Level Cleveland Center
10:28AM 41.2350 -77.5844 335° Northwest 371 427 26,000  Level Cleveland Center
10:29AM 41.3322 -77.6436 335° Northwest 377 434 26,000  Level Cleveland Center
10:30AM 41.4275 -77.7000 336° Northwest 377 434 26,000 -60 Level Cleveland Center
10:31AM 41.5250 -77.7594 335° Northwest 377 434 25,900 -900 Descending Cleveland Center
10:32AM 41.6203 -77.8222 334° Northwest 377 434 24,300 -1,560 Descending Cleveland Center
10:33AM 41.7114 -77.8850 333° Northwest 377 434 22,800 -1,500 Descending Cleveland Center
10:34AM 41.7806 -77.9850 313° West 367 422 21,300 -1,740 Descending Cleveland Center
10:35AM 41.8636 -78.0597 326° Northwest 367 422 19,400 -1,200 Descending Cleveland Center
10:36AM 41.9542 -78.1064 339° North 367 422 19,000 -240 Descending Cleveland Center
10:37AM 42.0450 -78.1561 338° Northwest 367 422 19,000 -600 Level Cleveland Center
10:38AM 42.1419 -78.2111 337° Northwest 357 411 17,800 -1,620 Descending Cleveland Center
10:39AM 42.2283 -78.2586 338° Northwest 358 412 15,800 -2,040 Descending Cleveland Center
10:40AM 42.3189 -78.3086 338° Northwest 358 412 13,800 -2,160 Descending Cleveland Center
10:41AM 42.4075 -78.3533 340° North 351 404 11,500 -1,440 Descending Cleveland Center
10:42AM 42.5044 -78.4061 338° Northwest 346 398 11,000 -720 Descending Cleveland Center
10:43AM 42.5822 -78.4514 337° Northwest 325 374 10,100 -1,320 Descending Cleveland Center
10:44AM 42.6603 -78.4967 337° Northwest 309 356 8,400 -1,740 Descending Cleveland Center
10:45AM 42.7361 -78.5367 339° North 297 342 6,700 -1,500 Descending Cleveland Center
10:46AM 42.8136 -78.5594 348° North 291 335 5,500 -1,260 Descending Cleveland Center
10:47AM 42.8908 -78.5656 357° North 279 321 4,200 -780 Descending Cleveland Center
10:48AM 42.9489 -78.5522 10° North 256 295 4,000 -240 Descending Cleveland Center